Time;durP1;ratioP1;P1;durP2;ratioP2;P2;SDS_P1;SDS_P2;PMS_P1;PMS_P2;Temp;Humidity;BMP_temperature;BMP_pressure;BME280_temperature;BME280_humidity;BME280_pressure;Samples;Min_cycle;Max_cycle;Signal;HPM_P1;HPM_P2
2023/06/07 00:02:02;;;;;;;10.60;4.57;;;;;;;17.88;73.87;101210.94;6098913;28;20025;-67
2023/06/07 00:04:58;;;;;;;7.40;4.40;;;;;;;17.87;73.82;101217.31;6079503;28;20017;-67
2023/06/07 00:07:53;;;;;;;8.40;4.90;;;;;;;17.88;73.60;101219.00;6074836;28;20029;-65
2023/06/07 00:10:49;;;;;;;10.55;4.82;;;;;;;17.79;73.61;101210.19;6074409;28;20472;-65
2023/06/07 00:13:44;;;;;;;7.77;5.57;;;;;;;17.84;73.69;101223.88;6074736;28;20405;-66
2023/06/07 00:16:40;;;;;;;13.05;5.85;;;;;;;17.85;74.07;101222.88;6089342;28;20391;-65
2023/06/07 00:19:35;;;;;;;9.45;4.63;;;;;;;17.98;73.11;101225.78;6098874;28;20031;-65
2023/06/07 00:22:33;;;;;;;11.10;4.87;;;;;;;17.96;73.33;101226.97;6098716;28;20053;-65
2023/06/07 00:25:29;;;;;;;7.50;4.82;;;;;;;17.84;73.34;101230.09;6097515;28;20337;-65
2023/06/07 00:28:24;;;;;;;7.07;4.97;;;;;;;17.79;73.82;101213.69;6098409;28;20037;-65
2023/06/07 00:31:19;;;;;;;8.07;5.10;;;;;;;17.88;73.71;101227.06;6098286;28;20036;-66
2023/06/07 00:34:15;;;;;;;6.65;4.55;;;;;;;17.92;73.35;101226.50;6098601;28;20077;-65
2023/06/07 00:37:10;;;;;;;10.77;5.20;;;;;;;17.99;72.78;101210.50;6099339;28;20025;-66
2023/06/07 00:40:06;;;;;;;8.20;5.05;;;;;;;18.10;72.43;101223.50;6076900;28;20041;-66
2023/06/07 00:43:01;;;;;;;12.25;5.38;;;;;;;18.00;72.86;101220.22;6073426;28;20033;-66
2023/06/07 00:45:57;;;;;;;12.87;5.20;;;;;;;18.11;72.53;101212.56;6073266;28;21399;-66
2023/06/07 00:48:52;;;;;;;7.65;4.93;;;;;;;17.81;72.94;101214.34;6074218;28;20114;-66
2023/06/07 00:51:47;;;;;;;8.23;4.63;;;;;;;17.61;74.82;101223.06;6072607;28;20052;-65
2023/06/07 00:54:43;;;;;;;8.35;4.70;;;;;;;17.57;75.28;101227.97;6073149;28;20330;-65
2023/06/07 00:57:40;;;;;;;13.95;5.35;;;;;;;17.77;74.63;101225.63;6072541;28;20538;-65
2023/06/07 01:00:37;;;;;;;8.65;5.35;;;;;;;17.91;73.50;101234.75;6073531;28;20111;-65
2023/06/07 01:03:34;;;;;;;7.13;4.65;;;;;;;17.58;74.92;101231.47;6071071;28;20029;-67
2023/06/07 01:06:29;;;;;;;7.60;5.03;;;;;;;17.62;74.19;101230.94;6072200;28;20017;-65
2023/06/07 01:09:25;;;;;;;6.03;4.23;;;;;;;17.72;73.15;101231.50;6073316;28;20044;-65
2023/06/07 01:12:21;;;;;;;9.73;5.23;;;;;;;17.79;73.00;101229.81;6072800;28;20025;-65
2023/06/07 01:15:16;;;;;;;6.88;4.55;;;;;;;17.93;72.43;101221.97;6070987;28;20275;-65
2023/06/07 01:18:11;;;;;;;8.52;5.05;;;;;;;17.57;74.71;101232.47;6073666;28;20041;-65
2023/06/07 01:21:07;;;;;;;6.23;4.40;;;;;;;17.29;75.96;101221.41;6073327;28;20076;-65
2023/06/07 01:24:03;;;;;;;6.70;4.25;;;;;;;17.56;75.29;101226.28;6070996;28;20044;-66
2023/06/07 01:26:59;;;;;;;8.45;4.80;;;;;;;17.80;73.56;101233.31;6073106;28;20040;-65
2023/06/07 01:29:58;;;;;;;7.25;4.50;;;;;;;17.89;73.83;101237.59;6073049;28;20040;-66
2023/06/07 01:32:53;;;;;;;10.10;5.10;;;;;;;17.58;74.80;101232.28;6071309;28;20021;-66
2023/06/07 01:35:50;;;;;;;7.33;4.90;;;;;;;17.44;76.67;101233.03;6072775;28;20032;-66
2023/06/07 01:38:46;;;;;;;10.90;5.22;;;;;;;17.31;77.23;101221.25;6071909;28;20041;-66
2023/06/07 01:41:42;;;;;;;7.40;4.75;;;;;;;17.22;78.53;101233.84;6072075;28;20088;-67
2023/06/07 01:44:37;;;;;;;7.85;4.88;;;;;;;16.97;79.78;101218.91;6070650;28;20041;-66
2023/06/07 01:47:33;;;;;;;7.32;4.82;;;;;;;16.94;80.38;101222.78;6071054;28;20033;-66
2023/06/07 01:50:28;;;;;;;9.65;4.85;;;;;;;16.86;80.84;101225.47;6071971;28;20036;-66
2023/06/07 01:53:24;;;;;;;8.27;4.93;;;;;;;16.74;81.25;101204.63;6072307;28;20029;-66
2023/06/07 01:56:28;;;;;;;9.50;5.18;;;;;;;16.79;82.16;101221.00;6073186;28;20041;-66
2023/06/07 02:00:05;;;;;;;8.27;4.80;;;;;;;16.94;80.64;101224.59;6072665;28;20025;-67
2023/06/07 02:03:12;;;;;;;6.80;4.80;;;;;;;16.75;81.78;101215.16;6072014;28;20103;-67
2023/06/07 02:06:10;;;;;;;9.30;5.60;;;;;;;16.77;84.24;101223.84;6085539;28;20412;-66
2023/06/07 02:09:07;;;;;;;12.90;6.38;;;;;;;16.71;86.02;101226.38;6071705;28;20032;-67
2023/06/07 02:12:04;;;;;;;8.70;5.88;;;;;;;16.46;89.18;101223.75;6072726;28;20025;-67
2023/06/07 02:15:00;;;;;;;7.82;5.60;;;;;;;16.23;91.78;101230.81;6077649;28;20061;-66
2023/06/07 02:17:57;;;;;;;8.88;5.40;;;;;;;15.92;93.52;101208.47;6076687;28;20148;-66
2023/06/07 02:20:53;;;;;;;8.45;6.00;;;;;;;15.82;95.97;101215.81;6077283;28;20385;-66
2023/06/07 02:23:48;;;;;;;10.23;5.50;;;;;;;15.73;97.76;101220.34;6076449;28;20041;-66
2023/06/07 02:26:43;;;;;;;8.17;5.23;;;;;;;15.65;99.13;101209.66;6077104;28;20767;-66
2023/06/07 02:29:39;;;;;;;8.80;5.80;;;;;;;15.75;99.44;101225.50;6077125;28;20037;-66
2023/06/07 02:32:35;;;;;;;8.40;5.47;;;;;;;15.75;99.74;101220.16;6076745;28;20083;-66
2023/06/07 02:35:30;;;;;;;8.93;5.88;;;;;;;15.67;99.07;101215.66;6076110;28;20036;-66
2023/06/07 02:38:25;;;;;;;9.83;6.67;;;;;;;15.62;98.77;101201.97;6076522;28;20384;-66
2023/06/07 02:41:21;;;;;;;13.10;5.97;;;;;;;15.68;97.70;101213.81;6076924;28;20033;-66
2023/06/07 02:44:16;;;;;;;7.70;5.47;;;;;;;15.68;98.16;101213.81;6075844;28;20033;-66
2023/06/07 02:47:11;;;;;;;13.93;6.40;;;;;;;15.72;99.21;101216.00;6076069;28;20291;-67
2023/06/07 02:50:07;;;;;;;12.57;6.80;;;;;;;15.69;100.00;101234.19;6076874;28;20033;-66
2023/06/07 02:53:05;;;;;;;10.40;6.45;;;;;;;15.47;100.00;101222.31;6076401;28;20025;-66
2023/06/07 02:56:01;;;;;;;10.13;6.63;;;;;;;15.62;100.00;101226.03;6075535;28;20432;-66
2023/06/07 02:58:56;;;;;;;9.80;5.53;;;;;;;15.65;100.00;101240.91;6076339;28;20025;-66
2023/06/07 03:01:51;;;;;;;8.30;6.27;;;;;;;15.59;100.00;101238.88;6076071;28;20037;-66
2023/06/07 03:04:47;;;;;;;10.80;5.90;;;;;;;15.51;100.00;101238.88;6076094;28;20077;-66
2023/06/07 03:07:42;;;;;;;10.93;5.97;;;;;;;15.48;100.00;101234.69;6076005;28;20084;-65
2023/06/07 03:10:37;;;;;;;12.98;6.75;;;;;;;15.37;100.00;101222.44;6077784;28;20033;-66
2023/06/07 03:13:33;;;;;;;10.40;6.83;;;;;;;15.40;100.00;101232.81;6078630;28;20059;-65
2023/06/07 03:16:29;;;;;;;10.57;6.53;;;;;;;15.36;100.00;101239.47;6076509;28;20025;-65
2023/06/07 03:19:25;;;;;;;10.88;6.22;;;;;;;15.22;100.00;101240.09;6076327;28;20039;-65
2023/06/07 03:22:21;;;;;;;10.77;7.13;;;;;;;15.23;100.00;101236.44;6081861;28;20392;-65
2023/06/07 03:25:16;;;;;;;9.57;6.10;;;;;;;15.26;100.00;101230.78;6074751;28;20758;-65
2023/06/07 03:28:12;;;;;;;10.90;7.03;;;;;;;15.21;100.00;101230.44;6075376;28;20049;-65
2023/06/07 03:31:07;;;;;;;11.30;6.90;;;;;;;15.18;100.00;101221.91;6076009;28;20026;-65
2023/06/07 03:34:02;;;;;;;12.30;6.27;;;;;;;15.39;100.00;101227.63;6075360;28;20033;-65
2023/06/07 03:36:58;;;;;;;9.27;5.88;;;;;;;15.42;100.00;101222.78;6081377;28;20151;-65
2023/06/07 03:39:53;;;;;;;9.52;6.55;;;;;;;15.55;100.00;101242.88;6075689;28;20022;-65
2023/06/07 03:42:48;;;;;;;12.50;6.80;;;;;;;15.95;100.00;101242.91;6075080;28;20058;-65
2023/06/07 03:45:44;;;;;;;10.20;6.30;;;;;;;15.81;100.00;101236.41;6074864;28;20029;-65
2023/06/07 03:48:39;;;;;;;12.20;6.50;;;;;;;15.65;100.00;101246.25;6095917;28;20029;-65
2023/06/07 03:51:37;;;;;;;11.73;6.43;;;;;;;15.48;100.00;101240.03;6088058;28;20376;-65
2023/06/07 03:54:33;;;;;;;8.25;6.35;;;;;;;15.62;100.00;101254.59;6074850;28;20029;-65
2023/06/07 03:57:28;;;;;;;9.60;6.95;;;;;;;15.58;100.00;101254.06;6074974;28;20388;-64
2023/06/07 04:00:26;;;;;;;9.40;6.77;;;;;;;15.51;100.00;101250.41;6075285;28;20033;-64
2023/06/07 04:03:24;;;;;;;10.90;7.10;;;;;;;15.54;100.00;101252.75;6074674;28;20612;-66
2023/06/07 04:06:24;;;;;;;8.60;6.43;;;;;;;15.54;100.00;101259.94;6074518;28;20040;-65
2023/06/07 04:09:19;;;;;;;10.63;6.80;;;;;;;15.43;100.00;101253.88;6075248;28;20041;-65
2023/06/07 04:12:15;;;;;;;10.75;6.68;;;;;;;15.48;100.00;101264.94;6092979;28;20056;-65
2023/06/07 04:15:10;;;;;;;11.00;7.30;;;;;;;15.29;100.00;101250.97;6078512;28;20412;-66
2023/06/07 04:18:05;;;;;;;9.85;7.32;;;;;;;15.26;100.00;101254.81;6074964;28;20445;-65
2023/06/07 04:21:01;;;;;;;10.50;6.88;;;;;;;15.39;100.00;101271.22;6074713;28;20029;-65
2023/06/07 04:23:57;;;;;;;11.80;6.68;;;;;;;15.29;100.00;101256.31;6089489;28;20032;-65
2023/06/07 04:26:53;;;;;;;10.43;6.65;;;;;;;15.37;100.00;101254.50;6098438;28;20056;-64
2023/06/07 04:29:49;;;;;;;10.73;7.55;;;;;;;15.40;100.00;101272.06;6094431;28;20380;-65
2023/06/07 04:32:44;;;;;;;11.82;7.80;;;;;;;15.38;100.00;101266.84;6075410;28;20383;-65
2023/06/07 04:35:41;;;;;;;12.38;7.10;;;;;;;15.26;100.00;101246.81;6074362;28;20025;-65
2023/06/07 04:38:39;;;;;;;9.35;6.78;;;;;;;15.13;100.00;101257.13;6070770;28;20021;-65
2023/06/07 04:41:35;;;;;;;10.80;7.40;;;;;;;14.99;100.00;101259.56;6073402;28;20434;-64
2023/06/07 04:44:31;;;;;;;9.35;7.22;;;;;;;14.97;100.00;101246.38;6072249;28;20068;-65
2023/06/07 04:47:27;;;;;;;13.83;8.87;;;;;;;15.02;100.00;101270.78;6072541;28;20380;-63
2023/06/07 04:50:22;;;;;;;15.43;8.43;;;;;;;15.00;100.00;101256.72;6079392;28;20276;-63
2023/06/07 04:53:21;;;;;;;13.33;8.07;;;;;;;14.71;100.00;101248.25;6073617;28;20038;-65
2023/06/07 04:56:17;;;;;;;14.60;8.15;;;;;;;14.76;100.00;101251.28;6073115;28;20555;-65
2023/06/07 04:59:14;;;;;;;12.45;7.32;;;;;;;14.68;100.00;101251.25;6073563;28;20033;-63
2023/06/07 05:02:10;;;;;;;17.08;8.77;;;;;;;14.79;100.00;101265.16;6073450;28;20048;-64
2023/06/07 05:05:06;;;;;;;10.68;7.80;;;;;;;15.00;100.00;101278.09;6073390;28;20034;-63
2023/06/07 05:08:01;;;;;;;15.38;8.45;;;;;;;15.11;100.00;101277.00;6072138;28;20025;-63
2023/06/07 05:10:57;;;;;;;12.13;8.40;;;;;;;15.14;100.00;101264.13;6075064;28;20449;-63
2023/06/07 05:13:52;;;;;;;9.63;6.87;;;;;;;15.18;100.00;101276.16;6071958;28;20029;-64
2023/06/07 05:16:48;;;;;;;13.87;7.13;;;;;;;15.07;100.00;101260.44;6079787;28;20160;-64
2023/06/07 05:19:43;;;;;;;12.77;7.30;;;;;;;15.10;100.00;101261.94;6073310;28;20036;-64
2023/06/07 05:22:41;;;;;;;11.87;6.63;;;;;;;15.10;100.00;101252.09;6073232;28;20026;-65
2023/06/07 05:25:38;;;;;;;10.63;7.35;;;;;;;15.21;100.00;101258.97;6071777;28;20024;-65
2023/06/07 05:28:34;;;;;;;8.70;6.30;;;;;;;15.10;100.00;101261.94;6072720;28;20112;-64
2023/06/07 05:31:30;;;;;;;9.13;5.80;;;;;;;15.21;100.00;101280.34;6072718;28;20075;-64
2023/06/07 05:34:25;;;;;;;9.70;6.70;;;;;;;15.36;100.00;101279.56;6072325;28;20033;-65
2023/06/07 05:37:21;;;;;;;12.47;6.93;;;;;;;15.35;100.00;101255.69;6072820;28;20049;-65
2023/06/07 05:40:18;;;;;;;10.63;6.10;;;;;;;15.42;100.00;101260.19;6072658;28;20033;-65
2023/06/07 05:43:13;;;;;;;11.68;6.78;;;;;;;15.51;100.00;101255.75;6075397;28;20048;-64
2023/06/07 05:46:08;;;;;;;10.17;6.50;;;;;;;15.56;100.00;101263.25;6074386;28;20455;-64
2023/06/07 05:49:04;;;;;;;13.13;7.00;;;;;;;15.69;100.00;101268.97;6074918;28;20279;-64
2023/06/07 05:52:00;;;;;;;9.15;6.00;;;;;;;15.79;100.00;101275.00;6077405;28;20032;-64
2023/06/07 05:54:57;;;;;;;12.20;5.67;;;;;;;15.98;100.00;101282.72;6076727;28;20033;-65
2023/06/07 05:57:54;;;;;;;9.65;6.45;;;;;;;16.07;100.00;101289.72;6077248;28;20108;-65
2023/06/07 06:00:49;;;;;;;11.93;6.55;;;;;;;16.12;100.00;101292.72;6077228;28;20044;-65
2023/06/07 06:03:45;;;;;;;11.73;5.85;;;;;;;16.24;100.00;101269.97;6076692;28;20053;-65
2023/06/07 06:06:40;;;;;;;14.43;7.10;;;;;;;16.27;100.00;101280.34;6076883;28;20417;-65
2023/06/07 06:09:35;;;;;;;11.63;6.57;;;;;;;16.38;100.00;101292.53;6076505;28;20271;-65
2023/06/07 06:12:31;;;;;;;12.05;6.95;;;;;;;16.40;100.00;101296.72;6076579;28;20025;-65
2023/06/07 06:15:26;;;;;;;11.90;6.43;;;;;;;16.55;100.00;101292.38;6078275;28;20059;-65
2023/06/07 06:18:21;;;;;;;11.77;6.30;;;;;;;16.53;100.00;101288.19;6076588;28;20053;-65
2023/06/07 06:21:17;;;;;;;15.90;6.63;;;;;;;16.64;100.00;101299.38;6076264;28;20461;-65
2023/06/07 06:24:12;;;;;;;9.80;6.47;;;;;;;16.67;100.00;101296.38;6075919;28;20053;-66
2023/06/07 06:27:08;;;;;;;11.37;5.90;;;;;;;16.60;100.00;101297.22;6076676;28;20051;-65
2023/06/07 06:30:05;;;;;;;11.60;5.88;;;;;;;16.60;100.00;101295.38;6076115;28;20086;-65
2023/06/07 06:33:00;;;;;;;13.50;6.95;;;;;;;16.53;100.00;101286.34;6076459;28;20048;-65
2023/06/07 06:35:56;;;;;;;11.07;5.73;;;;;;;16.53;99.13;101296.22;6075850;28;20033;-66
2023/06/07 06:38:51;;;;;;;10.18;5.90;;;;;;;16.79;99.28;101309.41;6076328;28;20032;-66
2023/06/07 06:41:46;;;;;;;10.90;6.00;;;;;;;16.72;96.26;101295.84;6076087;28;20567;-66
2023/06/07 06:44:42;;;;;;;13.40;8.10;;;;;;;16.92;95.86;101317.72;6075085;28;20025;-67
2023/06/07 06:47:41;;;;;;;12.73;5.73;;;;;;;17.13;94.34;101308.09;6077215;28;20029;-67
2023/06/07 06:50:36;;;;;;;11.38;5.85;;;;;;;17.43;92.62;101327.91;6074550;28;20030;-65
2023/06/07 06:53:31;;;;;;;12.30;5.83;;;;;;;18.16;88.57;101335.50;6074084;28;20495;-65
2023/06/07 06:56:27;;;;;;;14.43;6.97;;;;;;;18.26;87.45;101311.94;6074355;28;20623;-65
2023/06/07 06:59:22;;;;;;;12.67;6.70;;;;;;;18.65;87.25;101325.19;6073484;28;20268;-65
2023/06/07 07:02:17;;;;;;;15.13;6.10;;;;;;;18.28;86.42;101323.34;6082383;28;20286;-66
2023/06/07 07:05:13;;;;;;;12.47;5.83;;;;;;;18.59;86.39;101337.50;6074340;28;20042;-66
2023/06/07 07:08:09;;;;;;;12.65;6.55;;;;;;;18.92;85.44;101336.16;6075075;28;20271;-66
2023/06/07 07:11:04;;;;;;;11.07;6.40;;;;;;;19.00;82.50;101330.69;6075846;28;20041;-66
2023/06/07 07:13:59;;;;;;;12.77;6.10;;;;;;;18.94;81.61;101342.16;6074486;28;20029;-66
2023/06/07 07:16:55;;;;;;;15.70;6.67;;;;;;;18.89;82.14;101333.00;6077880;28;20032;-66
2023/06/07 07:19:50;;;;;;;10.63;5.70;;;;;;;18.94;81.62;101334.09;6075460;28;20033;-66
2023/06/07 07:22:46;;;;;;;11.00;5.57;;;;;;;19.05;80.65;101340.06;6074664;28;20049;-66
2023/06/07 07:25:42;;;;;;;11.90;5.70;;;;;;;19.61;79.58;101339.38;6074437;28;20284;-66
2023/06/07 07:28:37;;;;;;;10.50;5.97;;;;;;;20.08;77.23;101342.34;6074715;28;20036;-66
2023/06/07 07:31:33;;;;;;;12.45;6.65;;;;;;;19.60;77.72;101340.38;6075310;28;20036;-66
2023/06/07 07:34:28;;;;;;;11.82;5.95;;;;;;;20.04;78.34;101330.31;6075020;28;20029;-66
2023/06/07 07:37:25;;;;;;;11.70;5.83;;;;;;;19.88;77.05;101341.31;6074683;28;20492;-66
2023/06/07 07:40:21;;;;;;;14.32;7.03;;;;;;;19.84;77.49;101344.59;6083321;28;20833;-66
2023/06/07 07:43:16;;;;;;;11.18;6.28;;;;;;;20.14;76.06;101344.28;6072080;28;20028;-66
2023/06/07 07:46:13;;;;;;;12.57;6.33;;;;;;;19.82;75.41;101330.47;6073687;28;20030;-67
2023/06/07 07:49:09;;;;;;;10.63;6.47;;;;;;;19.96;75.88;101337.66;6073906;28;20033;-66
2023/06/07 07:52:04;;;;;;;15.75;6.07;;;;;;;20.08;77.00;101336.94;6074521;28;20084;-66
2023/06/07 07:55:00;;;;;;;13.07;6.38;;;;;;;20.33;75.60;101345.50;6073645;28;20123;-66
2023/06/07 07:57:55;;;;;;;11.32;6.20;;;;;;;20.37;73.09;101335.19;6074376;28;20029;-66
2023/06/07 08:00:52;;;;;;;11.60;6.33;;;;;;;20.32;73.81;101326.84;6074912;28;20460;-66
2023/06/07 08:03:48;;;;;;;10.75;6.28;;;;;;;20.15;74.20;101343.25;6073273;28;20036;-66
2023/06/07 08:06:45;;;;;;;11.30;5.85;;;;;;;20.70;73.11;101323.63;6074251;28;20028;-66
2023/06/07 08:09:40;;;;;;;10.02;6.43;;;;;;;20.78;73.36;101328.03;6074046;28;20373;-66
2023/06/07 08:12:35;;;;;;;11.33;6.40;;;;;;;20.90;73.94;101331.03;6074637;28;20025;-66
2023/06/07 08:15:31;;;;;;;15.53;6.70;;;;;;;21.09;71.86;101335.72;6073761;28;20104;-66
2023/06/07 08:18:27;;;;;;;9.90;5.95;;;;;;;20.78;73.25;101330.72;6077529;28;20318;-66
2023/06/07 08:21:22;;;;;;;11.10;6.47;;;;;;;20.84;70.66;101335.34;6073704;28;20449;-67
2023/06/07 08:24:18;;;;;;;14.30;6.90;;;;;;;20.61;71.49;101326.66;6073453;28;20029;-66
2023/06/07 08:27:13;;;;;;;13.10;7.03;;;;;;;20.78;71.64;101336.97;6073832;28;20026;-67
2023/06/07 08:30:09;;;;;;;12.37;6.90;;;;;;;21.06;71.08;101336.91;6077430;28;20096;-66
2023/06/07 08:33:04;;;;;;;11.15;6.57;;;;;;;21.58;68.81;101336.34;6073718;28;20021;-66
2023/06/07 08:36:00;;;;;;;11.18;6.18;;;;;;;21.28;69.14;101316.91;6073514;28;20036;-66
2023/06/07 08:38:55;;;;;;;9.90;6.23;;;;;;;21.54;68.61;101318.91;6073456;28;20075;-66
2023/06/07 08:41:50;;;;;;;10.60;6.37;;;;;;;21.55;68.18;101319.75;6076842;28;20037;-66
2023/06/07 08:44:46;;;;;;;13.15;6.50;;;;;;;21.45;68.04;101340.84;6072993;28;20268;-66
2023/06/07 08:47:43;;;;;;;9.17;6.13;;;;;;;22.01;67.34;101345.03;6075560;28;20022;-66
2023/06/07 08:50:38;;;;;;;13.00;6.60;;;;;;;21.88;66.59;101336.88;6073527;28;20272;-66
2023/06/07 08:53:54;;;;;;;11.73;6.60;;;;;;;22.25;67.63;101335.50;6071324;28;20037;-66
2023/06/07 08:56:49;;;;;;;13.88;6.95;;;;;;;22.44;67.48;101329.25;6071198;28;20033;-66
2023/06/07 08:59:46;;;;;;;11.20;6.65;;;;;;;22.54;65.47;101330.50;6072803;28;20107;-66
2023/06/07 09:02:41;;;;;;;12.60;6.97;;;;;;;22.35;67.01;101320.53;6073251;28;20030;-66
2023/06/07 09:05:36;;;;;;;13.53;6.80;;;;;;;22.47;67.18;101343.19;6076238;28;20035;-66
2023/06/07 09:08:32;;;;;;;11.97;6.90;;;;;;;22.86;64.20;101349.63;6072740;28;20287;-66
2023/06/07 09:11:27;;;;;;;13.63;6.38;;;;;;;22.42;65.79;101339.47;6071776;28;20039;-66
2023/06/07 09:14:22;;;;;;;11.57;6.50;;;;;;;22.18;65.61;101348.16;6072182;28;20034;-67
2023/06/07 09:17:18;;;;;;;15.77;7.27;;;;;;;21.73;66.81;101349.69;6072995;28;20640;-65
2023/06/07 09:20:20;;;;;;;12.43;6.83;;;;;;;21.70;67.79;101350.09;6075513;28;20393;-66
2023/06/07 09:23:16;;;;;;;10.02;6.05;;;;;;;21.59;67.26;101339.88;6071917;28;20280;-66
2023/06/07 09:26:11;;;;;;;10.55;6.60;;;;;;;21.41;68.41;101335.06;6075623;28;20116;-66
2023/06/07 09:29:08;;;;;;;11.47;6.23;;;;;;;21.46;68.73;101343.38;6072510;28;20036;-66
2023/06/07 09:32:17;;;;;;;13.77;6.60;;;;;;;20.79;71.83;101335.91;6074071;28;20025;-66
2023/06/07 09:35:18;;;;;;;11.57;6.65;;;;;;;20.69;73.75;101350.78;6072219;28;20633;-66
2023/06/07 09:38:25;;;;;;;9.70;6.20;;;;;;;20.81;71.75;101354.59;6072862;28;20033;-66
2023/06/07 09:41:29;;;;;;;11.48;6.75;;;;;;;20.64;72.44;101359.47;6072754;28;20080;-66
2023/06/07 09:44:25;;;;;;;10.60;6.72;;;;;;;20.89;72.76;101349.06;6072477;28;20045;-66
2023/06/07 09:47:22;;;;;;;10.73;6.65;;;;;;;20.91;70.94;101333.50;6072416;28;20461;-66
2023/06/07 09:50:17;;;;;;;16.70;7.10;;;;;;;20.97;72.85;101338.13;6074302;28;20041;-66
2023/06/07 09:53:13;;;;;;;14.90;6.27;;;;;;;21.23;71.92;101359.88;6072301;28;20488;-66
2023/06/07 09:56:16;;;;;;;9.75;6.18;;;;;;;21.41;70.34;101350.41;6071945;28;20017;-65
2023/06/07 09:59:13;;;;;;;12.80;6.35;;;;;;;21.57;69.71;101339.25;6072515;28;20021;-66
2023/06/07 10:02:26;;;;;;;10.50;6.13;;;;;;;21.92;68.38;101338.16;6072038;28;20057;-66
2023/06/07 10:05:22;;;;;;;9.25;5.88;;;;;;;22.61;65.54;101354.00;6071147;28;20100;-66
2023/06/07 10:08:17;;;;;;;12.50;6.28;;;;;;;23.19;61.99;101355.78;6071187;28;20037;-65
2023/06/07 10:11:13;;;;;;;10.38;6.10;;;;;;;23.28;62.37;101357.22;6070634;28;20109;-66
2023/06/07 10:14:14;;;;;;;9.05;6.18;;;;;;;23.08;62.15;101345.63;6070502;28;20056;-66
2023/06/07 10:17:11;;;;;;;10.23;6.28;;;;;;;23.16;60.35;101352.66;6069651;28;20025;-66
2023/06/07 10:20:08;;;;;;;13.00;6.53;;;;;;;22.98;61.36;101361.47;6070943;28;20028;-66
2023/06/07 10:23:05;;;;;;;9.60;6.60;;;;;;;23.46;60.32;101360.09;6070734;28;20376;-66
2023/06/07 10:26:04;;;;;;;12.82;6.75;;;;;;;23.31;59.06;101337.84;6071865;28;20049;-66
2023/06/07 10:29:07;;;;;;;9.50;5.43;;;;;;;23.80;57.33;101339.09;6070864;28;20045;-66
2023/06/07 10:32:25;;;;;;;12.50;6.18;;;;;;;23.96;56.48;101352.97;6072062;28;20025;-66
2023/06/07 10:35:20;;;;;;;9.57;5.85;;;;;;;23.87;53.94;101340.72;6072976;28;20026;-66
2023/06/07 10:38:16;;;;;;;14.63;7.10;;;;;;;24.14;53.05;101342.25;6076598;28;20369;-66
2023/06/07 10:41:11;;;;;;;10.77;6.43;;;;;;;23.76;55.29;101332.44;6086542;28;20051;-67
2023/06/07 10:44:07;;;;;;;8.57;5.37;;;;;;;23.55;55.62;101320.91;6074223;28;20030;-66
2023/06/07 10:47:20;;;;;;;10.97;6.83;;;;;;;23.70;54.50;101347.69;6076205;28;20299;-66
2023/06/07 10:50:28;;;;;;;9.20;5.93;;;;;;;23.58;53.94;101333.19;6068944;28;20276;-66
2023/06/07 10:53:23;;;;;;;10.00;5.78;;;;;;;23.13;53.14;101334.19;6067772;28;20032;-66
2023/06/07 10:56:34;;;;;;;9.63;5.23;;;;;;;23.83;52.79;101335.97;6075822;28;20025;-66
2023/06/07 10:59:29;;;;;;;9.80;4.68;;;;;;;23.84;51.01;101321.34;6074521;28;20108;-66
2023/06/07 11:02:26;;;;;;;8.73;4.70;;;;;;;23.79;48.04;101316.59;6075092;28;20037;-65
2023/06/07 11:05:57;;;;;;;9.20;4.80;;;;;;;23.85;50.37;101331.16;6070557;28;20284;-66
2023/06/07 11:09:18;;;;;;;10.20;5.65;;;;;;;24.17;49.58;101330.13;6079711;28;20384;-66
2023/06/07 11:12:35;;;;;;;9.88;5.07;;;;;;;24.55;48.77;101330.03;6075859;28;20037;-66
2023/06/07 11:15:35;;;;;;;5.43;3.70;;;;;;;24.88;44.38;101330.56;6074781;28;20350;-66
2023/06/07 11:18:50;;;;;;;;;;;;;;;24.94;44.51;101332.38;6076057;28;20021;-66
2023/06/07 11:21:55;;;;;;;8.25;4.32;;;;;;;24.96;44.42;101330.28;6075444;28;20117;-66
2023/06/07 11:24:50;;;;;;;5.63;4.00;;;;;;;25.84;42.07;101312.47;6073739;28;20473;-66
2023/06/07 11:27:53;;;;;;;6.65;4.72;;;;;;;26.10;42.21;101318.53;6075396;28;20037;-67
2023/06/07 11:30:49;;;;;;;8.38;4.35;;;;;;;26.45;42.01;101314.00;6075297;28;20449;-67
2023/06/07 11:33:48;;;;;;;8.20;4.55;;;;;;;25.96;42.55;101318.75;6074107;28;20114;-66
2023/06/07 11:36:43;;;;;;;6.80;4.40;;;;;;;25.99;43.55;101304.69;6075625;28;20025;-66
2023/06/07 11:39:39;;;;;;;5.33;4.10;;;;;;;26.06;44.26;101303.78;6075231;28;20025;-67
2023/06/07 11:42:34;;;;;;;8.13;5.13;;;;;;;26.16;43.47;101314.94;6074837;28;20256;-67
2023/06/07 11:45:33;;;;;;;8.85;5.15;;;;;;;26.18;43.51;101302.75;6073449;28;20048;-66
2023/06/07 11:48:30;;;;;;;7.72;5.47;;;;;;;25.80;44.72;101313.97;6074699;28;20036;-66
2023/06/07 11:51:25;;;;;;;8.90;5.25;;;;;;;25.75;45.33;101294.81;6074871;28;20033;-67
2023/06/07 11:54:23;;;;;;;8.83;4.87;;;;;;;25.42;47.19;101308.00;6074076;28;20045;-66
2023/06/07 11:57:19;;;;;;;22.80;13.60;;;;;;;25.29;47.15;101297.31;6073763;28;20033;-66
2023/06/07 12:00:16;;;;;;;9.30;5.50;;;;;;;24.37;48.75;101311.84;6074278;28;20049;-66
2023/06/07 12:03:12;;;;;;;10.35;5.38;;;;;;;25.08;47.51;101284.22;6074159;28;20029;-66
2023/06/07 12:06:07;;;;;;;10.68;5.70;;;;;;;25.50;46.04;101299.56;6071714;28;20072;-67
2023/06/07 12:09:11;;;;;;;7.38;5.18;;;;;;;25.03;47.50;101290.31;6070720;28;20059;-66
2023/06/07 12:12:14;;;;;;;7.38;4.75;;;;;;;24.88;48.33;101289.03;6072648;28;20491;-66
2023/06/07 12:15:10;;;;;;;10.48;5.40;;;;;;;24.87;48.68;101273.81;6070987;28;20033;-66
2023/06/07 12:18:05;;;;;;;8.23;4.95;;;;;;;24.97;47.84;101284.97;6072488;28;20037;-66
2023/06/07 12:21:03;;;;;;;8.23;5.07;;;;;;;25.03;48.80;101290.31;6071236;28;20029;-66
2023/06/07 12:24:00;;;;;;;8.27;5.20;;;;;;;25.13;48.26;101276.22;6070154;28;20096;-67
2023/06/07 12:26:56;;;;;;;6.65;4.82;;;;;;;25.05;48.80;101284.66;6069843;28;20034;-67
2023/06/07 12:29:54;;;;;;;8.88;5.20;;;;;;;24.74;47.89;101277.44;6070182;28;20037;-67
2023/06/07 12:32:56;;;;;;;11.10;5.18;;;;;;;24.51;49.14;101280.84;6072950;28;20417;-67
2023/06/07 12:35:52;;;;;;;11.68;5.03;;;;;;;24.91;49.66;101283.97;6075822;28;20108;-67
2023/06/07 12:38:47;;;;;;;9.20;5.03;;;;;;;25.06;48.01;101275.47;6070322;28;20036;-67
2023/06/07 12:41:42;;;;;;;8.93;5.13;;;;;;;24.70;48.80;101276.25;6069603;28;20040;-67
2023/06/07 12:44:38;;;;;;;7.00;4.30;;;;;;;24.72;48.51;101266.84;6069588;28;20338;-68
2023/06/07 12:47:33;;;;;;;7.43;4.70;;;;;;;24.79;47.54;101264.91;6071816;28;20057;-65
2023/06/07 12:50:28;;;;;;;8.07;4.57;;;;;;;25.03;48.12;101254.22;6069698;28;20033;-68
2023/06/07 12:53:24;;;;;;;8.13;4.53;;;;;;;25.42;47.25;101278.13;6070500;28;20029;-67
2023/06/07 12:56:20;;;;;;;6.93;4.87;;;;;;;24.94;46.90;101266.41;6069954;28;20021;-67
2023/06/07 12:59:15;;;;;;;6.25;4.55;;;;;;;24.74;46.77;101251.16;6069584;28;20268;-67
2023/06/07 13:02:11;;;;;;;8.93;4.80;;;;;;;24.93;47.35;101264.75;6070287;28;20033;-67
2023/06/07 13:05:08;;;;;;;6.67;4.20;;;;;;;24.48;48.13;101259.59;6068293;28;20703;-67
2023/06/07 13:08:03;;;;;;;10.68;4.60;;;;;;;24.38;49.47;101251.09;6069254;28;20037;-68
2023/06/07 13:10:59;;;;;;;6.40;4.65;;;;;;;23.91;49.09;101254.41;6070655;28;20429;-67
2023/06/07 13:13:54;;;;;;;6.37;4.50;;;;;;;24.21;50.33;101250.03;6068136;28;20045;-67
2023/06/07 13:16:49;;;;;;;7.53;4.23;;;;;;;24.09;50.98;101243.66;6076539;28;20034;-67
2023/06/07 13:19:46;;;;;;;6.93;4.63;;;;;;;23.90;49.80;101252.75;6072591;28;20397;-67
2023/06/07 13:22:41;;;;;;;8.02;4.45;;;;;;;23.77;50.45;101242.84;6072645;28;20043;-67
2023/06/07 13:25:37;;;;;;;8.00;4.20;;;;;;;23.48;51.07;101238.84;6068160;28;20042;-67
2023/06/07 13:28:32;;;;;;;7.50;4.83;;;;;;;23.34;51.96;101248.09;6072393;28;20345;-67
2023/06/07 13:31:27;;;;;;;6.67;4.47;;;;;;;23.35;51.50;101243.47;6073192;28;20036;-67
2023/06/07 13:34:23;;;;;;;6.72;4.25;;;;;;;23.04;52.75;101244.28;6071175;28;20465;-67
2023/06/07 13:37:18;;;;;;;7.03;4.50;;;;;;;23.17;52.69;101249.63;6072103;28;20402;-68